Angaben ohne Gewhr
Wetterdaten: aktuell Samstag, 18.09.2021 02:55
Datum Zeit Temp. A. Feuchte A. Luftdruck Regen Wind W.Richtung W.Richtung Sonnenschein T Regen UV Solar Taupunkt Windchill Windben
18.09.2021 02:55 12,7 C 84 % 1015,2 hPa 0,0 l/m 0,0 km/h (0 Bft) NO 46 0 min 0 min 0,0 UV-I 0 W/m 10,1 C 12,7 C 0,0 km/h (0 Bft)
18.09.2021 02:50 12,7 C 84 % 1015,2 hPa 0,0 l/m 0,0 km/h (0 Bft) NO 46 0 min 0 min 0,0 UV-I 0 W/m 10,1 C 12,7 C 0,0 km/h (0 Bft)
18.09.2021 02:45 12,6 C 85 % 1015,3 hPa 0,0 l/m 0,0 km/h (0 Bft) NO 46 0 min 0 min 0,0 UV-I 0 W/m 10,1 C 12,6 C 0,0 km/h (0 Bft)
18.09.2021 02:40 12,6 C 85 % 1015,3 hPa 0,0 l/m 0,0 km/h (0 Bft) NO 46 0 min 0 min 0,0 UV-I 0 W/m 10,1 C 12,6 C 0,0 km/h (0 Bft)
18.09.2021 02:35 12,5 C 86 % 1015,2 hPa 0,0 l/m 0,0 km/h (0 Bft) NO 46 0 min 0 min 0,0 UV-I 0 W/m 10,2 C 12,5 C 0,0 km/h (0 Bft)
18.09.2021 02:30 12,4 C 86 % 1015,3 hPa 0,0 l/m 0,0 km/h (0 Bft) NO 46 0 min 0 min 0,0 UV-I 0 W/m 10,1 C 12,4 C 0,0 km/h (0 Bft)
18.09.2021 02:25 12,3 C 87 % 1015,2 hPa 0,0 l/m 0,0 km/h (0 Bft) NO 46 0 min 0 min 0,0 UV-I 0 W/m 10,2 C 12,3 C 0,0 km/h (0 Bft)
18.09.2021 02:20 12,3 C 87 % 1015,3 hPa 0,0 l/m 0,0 km/h (0 Bft) NO 46 0 min 0 min 0,0 UV-I 0 W/m 10,2 C 12,3 C 0,0 km/h (0 Bft)
18.09.2021 02:15 12,3 C 87 % 1015,3 hPa 0,0 l/m 0,0 km/h (0 Bft) NO 46 0 min 0 min 0,0 UV-I 0 W/m 10,2 C 12,3 C 0,0 km/h (0 Bft)
18.09.2021 02:10 12,4 C 86 % 1015,3 hPa 0,0 l/m 0,0 km/h (0 Bft) NO 44 0 min 0 min 0,0 UV-I 0 W/m 10,1 C 12,4 C 0,0 km/h (0 Bft)
18.09.2021 02:05 12,5 C 86 % 1015,3 hPa 0,0 l/m 0,0 km/h (0 Bft) NO 43 0 min 0 min 0,0 UV-I 0 W/m 10,2 C 12,5 C 0,0 km/h (0 Bft)
18.09.2021 02:00 12,6 C 85 % 1015,3 hPa 0,0 l/m 0,0 km/h (0 Bft) NO 44 0 min 0 min 0,0 UV-I 0 W/m 10,1 C 12,6 C 0,0 km/h (0 Bft)
18.09.2021 01:55 12,6 C 85 % 1015,3 hPa 0,0 l/m 0,0 km/h (0 Bft) NO 47 0 min 0 min 0,0 UV-I 0 W/m 10,1 C 12,6 C 0,0 km/h (0 Bft)
18.09.2021 01:50 12,6 C 84 % 1015,3 hPa 0,0 l/m 0,0 km/h (0 Bft) O 81 0 min 0 min 0,0 UV-I 0 W/m 10,0 C 12,6 C 0,0 km/h (0 Bft)
18.09.2021 01:45 12,7 C 84 % 1015,3 hPa 0,0 l/m 0,0 km/h (0 Bft) O 82 0 min 0 min 0,0 UV-I 0 W/m 10,1 C 12,7 C 0,0 km/h (0 Bft)
18.09.2021 01:40 12,7 C 83 % 1015,3 hPa 0,0 l/m 0,0 km/h (0 Bft) O 82 0 min 0 min 0,0 UV-I 0 W/m 9,9 C 12,7 C 0,0 km/h (0 Bft)
18.09.2021 01:35 12,8 C 83 % 1015,3 hPa 0,0 l/m 0,0 km/h (0 Bft) O 82 0 min 0 min 0,0 UV-I 0 W/m 10,0 C 12,8 C 0,0 km/h (0 Bft)
18.09.2021 01:30 12,9 C 82 % 1015,3 hPa 0,0 l/m 0,0 km/h (0 Bft) O 82 0 min 0 min 0,0 UV-I 0 W/m 9,9 C 12,9 C 0,0 km/h (0 Bft)
18.09.2021 01:25 13,0 C 82 % 1015,3 hPa 0,0 l/m 0,0 km/h (0 Bft) O 82 0 min 0 min 0,0 UV-I 0 W/m 10,0 C 13,0 C 0,0 km/h (0 Bft)
18.09.2021 01:20 13,2 C 81 % 1015,3 hPa 0,0 l/m 0,0 km/h (0 Bft) O 82 0 min 0 min 0,0 UV-I 0 W/m 10,0 C 13,2 C 0,0 km/h (0 Bft)
18.09.2021 01:15 13,3 C 80 % 1015,2 hPa 0,0 l/m 0,0 km/h (0 Bft) O 82 0 min 0 min 0,0 UV-I 0 W/m 9,9 C 13,3 C 0,0 km/h (0 Bft)
18.09.2021 01:10 13,4 C 80 % 1015,3 hPa 0,0 l/m 0,0 km/h (0 Bft) O 82 0 min 0 min 0,0 UV-I 0 W/m 10,0 C 13,4 C 0,0 km/h (0 Bft)
18.09.2021 01:05 13,4 C 79 % 1015,3 hPa 0,0 l/m 0,0 km/h (0 Bft) O 82 0 min 0 min 0,0 UV-I 0 W/m 9,8 C 13,4 C 0,0 km/h (0 Bft)
18.09.2021 01:00 13,4 C 79 % 1015,3 hPa 0,0 l/m 0,0 km/h (0 Bft) O 82 0 min 0 min 0,0 UV-I 0 W/m 9,8 C 13,4 C 0,0 km/h (0 Bft)
18.09.2021 00:55 13,4 C 79 % 1015,3 hPa 0,0 l/m 0,0 km/h (0 Bft) O 82 0 min 0 min 0,0 UV-I 0 W/m 9,8 C 13,4 C 0,0 km/h (0 Bft)
18.09.2021 00:50 13,4 C 79 % 1015,4 hPa 0,0 l/m 0,0 km/h (0 Bft) O 82 0 min 0 min 0,0 UV-I 0 W/m 9,8 C 13,4 C 0,0 km/h (0 Bft)
18.09.2021 00:45 13,3 C 79 % 1015,3 hPa 0,0 l/m 0,0 km/h (0 Bft) O 82 0 min 0 min 0,0 UV-I 0 W/m 9,7 C 13,3 C 0,0 km/h (0 Bft)
18.09.2021 00:40 13,3 C 79 % 1015,4 hPa 0,0 l/m 0,0 km/h (0 Bft) O 82 0 min 0 min 0,0 UV-I 0 W/m 9,7 C 13,3 C 0,0 km/h (0 Bft)
18.09.2021 00:35 13,4 C 79 % 1015,4 hPa 0,0 l/m 0,0 km/h (0 Bft) O 82 0 min 0 min 0,0 UV-I 0 W/m 9,8 C 13,4 C 0,0 km/h (0 Bft)
18.09.2021 00:30 13,4 C 79 % 1015,4 hPa 0,0 l/m 0,0 km/h (0 Bft) O 82 0 min 0 min 0,0 UV-I 0 W/m 9,8 C 13,4 C 0,0 km/h (0 Bft)
18.09.2021 00:25 13,4 C 79 % 1015,3 hPa 0,0 l/m 0,0 km/h (0 Bft) O 82 0 min 0 min 0,0 UV-I 0 W/m 9,8 C 13,4 C 0,0 km/h (0 Bft)
18.09.2021 00:20 13,4 C 79 % 1015,3 hPa 0,0 l/m 0,0 km/h (0 Bft) O 82 0 min 0 min 0,0 UV-I 0 W/m 9,8 C 13,4 C 0,0 km/h (0 Bft)
18.09.2021 00:15 13,5 C 79 % 1015,4 hPa 0,0 l/m 0,0 km/h (0 Bft) O 82 0 min 0 min 0,0 UV-I 0 W/m 9,9 C 13,5 C 0,0 km/h (0 Bft)
18.09.2021 00:10 13,6 C 79 % 1015,3 hPa 0,0 l/m 0,0 km/h (0 Bft) O 82 0 min 0 min 0,0 UV-I 0 W/m 10,0 C 13,6 C 0,0 km/h (0 Bft)
18.09.2021 00:05 13,6 C 79 % 1015,3 hPa 0,0 l/m 0,0 km/h (0 Bft) O 82 0 min 0 min 0,0 UV-I 0 W/m 10,0 C 13,6 C 0,0 km/h (0 Bft)
18.09.2021 00:00 13,6 C 79 % 1015,2 hPa 0,0 l/m 0,0 km/h (0 Bft) O 82 0 min 0 min 0,0 UV-I 0 W/m 10,0 C 13,6 C 0,0 km/h (0 Bft)
17.09.2021 23:55 13,7 C 79 % 1015,3 hPa 0,0 l/m 0,0 km/h (0 Bft) O 82 0 min 0 min 0,0 UV-I 0 W/m 10,1 C 13,7 C 0,0 km/h (0 Bft)
17.09.2021 23:50 13,7 C 79 % 1015,3 hPa 0,0 l/m 0,0 km/h (0 Bft) O 82 0 min 0 min 0,0 UV-I 0 W/m 10,1 C 13,7 C 0,0 km/h (0 Bft)
17.09.2021 23:45 13,7 C 79 % 1015,3 hPa 0,0 l/m 0,0 km/h (0 Bft) O 82 0 min 0 min 0,0 UV-I 0 W/m 10,1 C 13,7 C 0,0 km/h (0 Bft)
17.09.2021 23:40 13,7 C 79 % 1015,3 hPa 0,0 l/m 0,0 km/h (0 Bft) O 82 0 min 0 min 0,0 UV-I 0 W/m 10,1 C 13,7 C 0,0 km/h (0 Bft)
17.09.2021 23:35 13,7 C 79 % 1015,3 hPa 0,0 l/m 0,0 km/h (0 Bft) O 82 0 min 0 min 0,0 UV-I 0 W/m 10,1 C 13,7 C 0,0 km/h (0 Bft)
17.09.2021 23:30 13,8 C 79 % 1015,3 hPa 0,0 l/m 0,0 km/h (0 Bft) O 79 0 min 0 min 0,0 UV-I 0 W/m 10,2 C 13,8 C 0,0 km/h (0 Bft)
17.09.2021 23:25 13,8 C 79 % 1015,3 hPa 0,0 l/m 0,0 km/h (0 Bft) O-NO 65 0 min 0 min 0,0 UV-I 0 W/m 10,2 C 13,8 C 0,0 km/h (0 Bft)
17.09.2021 23:20 13,8 C 79 % 1015,2 hPa 0,0 l/m 0,0 km/h (0 Bft) O-NO 63 0 min 0 min 0,0 UV-I 0 W/m 10,2 C 13,8 C 0,0 km/h (0 Bft)
17.09.2021 23:15 13,9 C 79 % 1015,2 hPa 0,0 l/m 0,0 km/h (0 Bft) O-NO 63 0 min 0 min 0,0 UV-I 0 W/m 10,3 C 13,9 C 0,0 km/h (0 Bft)
17.09.2021 23:10 14,1 C 79 % 1015,2 hPa 0,0 l/m 0,0 km/h (0 Bft) S-SO 151 0 min 0 min 0,0 UV-I 0 W/m 10,5 C 14,1 C 0,0 km/h (0 Bft)
17.09.2021 23:05 14,2 C 79 % 1015,2 hPa 0,0 l/m 0,0 km/h (0 Bft) S-SO 151 0 min 0 min 0,0 UV-I 0 W/m 10,6 C 14,2 C 0,0 km/h (0 Bft)
17.09.2021 23:00 14,2 C 78 % 1015,1 hPa 0,0 l/m 0,0 km/h (0 Bft) S-SO 151 0 min 0 min 0,0 UV-I 0 W/m 10,4 C 14,2 C 0,0 km/h (0 Bft)
17.09.2021 22:55 14,1 C 78 % 1015,1 hPa 0,0 l/m 0,0 km/h (0 Bft) S-SO 151 0 min 0 min 0,0 UV-I 0 W/m 10,3 C 14,1 C 0,0 km/h (0 Bft)
17.09.2021 22:50 14,1 C 78 % 1015,1 hPa 0,0 l/m 0,1 km/h (0 Bft) S-SO 151 0 min 0 min 0,0 UV-I 0 W/m 10,3 C 14,1 C 3,2 km/h (1 Bft)
17.09.2021 22:45 14,1 C 79 % 1015,1 hPa 0,0 l/m 0,0 km/h (0 Bft) S-SO 148 0 min 0 min 0,0 UV-I 0 W/m 10,5 C 14,1 C 0,0 km/h (0 Bft)
17.09.2021 22:40 14,2 C 79 % 1015,1 hPa 0,0 l/m 0,0 km/h (0 Bft) O-SO 123 0 min 0 min 0,0 UV-I 0 W/m 10,6 C 14,2 C 0,0 km/h (0 Bft)
17.09.2021 22:35 14,2 C 79 % 1015,1 hPa 0,0 l/m 0,0 km/h (0 Bft) O-SO 110 0 min 0 min 0,0 UV-I 0 W/m 10,6 C 14,2 C 0,0 km/h (0 Bft)
17.09.2021 22:30 14,3 C 79 % 1015,1 hPa 0,0 l/m 0,0 km/h (0 Bft) O-SO 119 0 min 0 min 0,0 UV-I 0 W/m 10,7 C 14,3 C 0,0 km/h (0 Bft)
17.09.2021 22:25 14,3 C 79 % 1015,1 hPa 0,0 l/m 0,0 km/h (0 Bft) SO 141 0 min 0 min 0,0 UV-I 0 W/m 10,7 C 14,3 C 0,0 km/h (0 Bft)
17.09.2021 22:20 14,4 C 79 % 1015,1 hPa 0,0 l/m 0,0 km/h (0 Bft) O-SO 111 0 min 0 min 0,0 UV-I 0 W/m 10,8 C 14,4 C 0,0 km/h (0 Bft)
17.09.2021 22:15 14,5 C 78 % 1015,1 hPa 0,0 l/m 0,0 km/h (0 Bft) O-SO 107 0 min 0 min 0,0 UV-I 0 W/m 10,7 C 14,5 C 0,0 km/h (0 Bft)
17.09.2021 22:10 14,6 C 78 % 1015,1 hPa 0,0 l/m 0,0 km/h (0 Bft) O-SO 104 0 min 0 min 0,0 UV-I 0 W/m 10,8 C 14,6 C 0,0 km/h (0 Bft)
17.09.2021 22:05 14,6 C 78 % 1015,2 hPa 0,0 l/m 0,0 km/h (0 Bft) O 96 0 min 0 min 0,0 UV-I 0 W/m 10,8 C 14,6 C 0,0 km/h (0 Bft)
17.09.2021 22:00 14,7 C 79 % 1015,2 hPa 0,0 l/m 0,0 km/h (0 Bft) O-NO 73 0 min 0 min 0,0 UV-I 0 W/m 11,1 C 14,7 C 0,0 km/h (0 Bft)
17.09.2021 21:55 14,7 C 78 % 1015,2 hPa 0,0 l/m 0,0 km/h (0 Bft) O-NO 68 0 min 0 min 0,0 UV-I 0 W/m 10,9 C 14,7 C 0,0 km/h (0 Bft)
17.09.2021 21:50 14,7 C 79 % 1015,2 hPa 0,0 l/m 0,0 km/h (0 Bft) O-NO 69 0 min 0 min 0,0 UV-I 0 W/m 11,1 C 14,7 C 0,0 km/h (0 Bft)
17.09.2021 21:45 14,7 C 79 % 1015,1 hPa 0,0 l/m 0,0 km/h (0 Bft) O-NO 65 0 min 0 min 0,0 UV-I 0 W/m 11,1 C 14,7 C 0,0 km/h (0 Bft)
17.09.2021 21:40 14,7 C 79 % 1015,1 hPa 0,0 l/m 0,0 km/h (0 Bft) O-NO 67 0 min 0 min 0,0 UV-I 0 W/m 11,1 C 14,7 C 0,0 km/h (0 Bft)
17.09.2021 21:35 14,7 C 79 % 1015,1 hPa 0,0 l/m 0,0 km/h (0 Bft) O-NO 74 0 min 0 min 0,0 UV-I 0 W/m 11,1 C 14,7 C 0,0 km/h (0 Bft)
17.09.2021 21:30 14,7 C 79 % 1015,1 hPa 0,0 l/m 0,0 km/h (0 Bft) O-NO 70 0 min 0 min 0,0 UV-I 0 W/m 11,1 C 14,7 C 0,0 km/h (0 Bft)
17.09.2021 21:25 14,7 C 79 % 1015,2 hPa 0,0 l/m 0,0 km/h (0 Bft) O-NO 65 0 min 0 min 0,0 UV-I 0 W/m 11,1 C 14,7 C 0,0 km/h (0 Bft)
17.09.2021 21:20 14,7 C 79 % 1015,1 hPa 0,0 l/m 0,0 km/h (0 Bft) O-NO 60 0 min 0 min 0,0 UV-I 0 W/m 11,1 C 14,7 C 0,0 km/h (0 Bft)
17.09.2021 21:15 14,7 C 78 % 1015,1 hPa 0,0 l/m 0,0 km/h (0 Bft) O-NO 61 0 min 0 min 0,0 UV-I 0 W/m 10,9 C 14,7 C 0,0 km/h (0 Bft)
17.09.2021 21:10 14,7 C 78 % 1015,1 hPa 0,0 l/m 0,0 km/h (0 Bft) O-NO 64 0 min 0 min 0,0 UV-I 0 W/m 10,9 C 14,7 C 0,0 km/h (0 Bft)
17.09.2021 21:05 14,7 C 78 % 1015,1 hPa 0,0 l/m 0,0 km/h (0 Bft) O-NO 59 0 min 0 min 0,0 UV-I 0 W/m 10,9 C 14,7 C 0,0 km/h (0 Bft)
17.09.2021 21:00 14,7 C 77 % 1015,0 hPa 0,0 l/m 0,0 km/h (0 Bft) O-NO 61 0 min 0 min 0,0 UV-I 0 W/m 10,7 C 14,7 C 0,0 km/h (0 Bft)
17.09.2021 20:55 14,7 C 77 % 1015,0 hPa 0,0 l/m 0,0 km/h (0 Bft) NO 56 0 min 0 min 0,0 UV-I 0 W/m 10,7 C 14,7 C 0,0 km/h (0 Bft)
_ Min-Zeit 07:05 14:30 19:20 - 03:00 - - - - - - 00:40 07:10 03:00
Minimum _ 12,1 C 54 % 1014,4 hPa - 0,0 km/h (0 Bft) - - - - - - 9,7 C 12,1 C 0,0 km/h (0 Bft)
_ Max-Zeit 14:40 07:40 03:00 03:00 14:30 - - 09:35 03:00 14:20 14:20 12:20 14:40 15:15
Maximum _ 20,1 C 90 % 1016,6 hPa 0,0 l/m 1,8 km/h
SW (1 Bft)
- - 5 min 0 min 4,7 UV-I 764 W/m 13,5 C 19,9 C 8,0 km/h
N-NW (2 Bft)
Durchschnitt _ 14,6 C 80 % 1015,7 hPa #0,0 l/m 0,1 km/h (0 Bft) W - #0 min. #0 min. 0,0 UV-I 0 W/m 11,0 C 14,6 C 0,5 km/h (0 Bft)
2021 Wolfgang Maurer - VantagePro2Plus